Time;durP1;ratioP1;P1;durP2;ratioP2;P2;SDS_P1;SDS_P2;PMS_P1;PMS_P2;Temp;Humidity;BMP_temperature;BMP_pressure;BME280_temperature;BME280_humidity;BME280_pressure;Samples;Min_cycle;Max_cycle;Signal;HPM_P1;HPM_P2
2022/06/30 00:02:18;;;;;;;9.85;8.68;;;;;;;20.13;78.26;100232.57;1749794;80;21079;-73
2022/06/30 00:04:44;;;;;;;11.05;8.93;;;;;;;20.18;78.34;100233.37;1754968;80;21088;-73
2022/06/30 00:07:11;;;;;;;13.75;9.80;;;;;;;20.17;78.27;100237.04;1747030;82;20984;-72
2022/06/30 00:09:38;;;;;;;10.35;9.40;;;;;;;20.11;78.33;100237.81;1746452;80;20988;-72
2022/06/30 00:12:06;;;;;;;8.78;7.90;;;;;;;20.10;78.53;100236.15;1754445;80;22554;-73
2022/06/30 00:14:33;;;;;;;8.53;7.62;;;;;;;20.10;78.64;100235.64;1756498;80;20960;-73
2022/06/30 00:17:00;;;;;;;11.12;7.53;;;;;;;20.06;78.79;100238.86;1748324;80;21015;-72
2022/06/30 00:19:26;;;;;;;11.08;9.33;;;;;;;20.06;78.95;100234.33;1751985;80;21501;-72
2022/06/30 00:21:53;;;;;;;13.32;9.45;;;;;;;20.07;79.00;100232.48;1759965;79;20944;-72
2022/06/30 00:24:19;;;;;;;10.98;9.70;;;;;;;20.10;79.08;100233.47;1745201;81;21887;-72
2022/06/30 00:26:46;;;;;;;11.03;9.28;;;;;;;20.14;79.17;100225.36;1747745;80;21050;-72
2022/06/30 00:29:12;;;;;;;11.22;10.13;;;;;;;20.15;79.19;100222.99;1748440;80;20953;-74
2022/06/30 00:31:39;;;;;;;11.08;9.98;;;;;;;20.17;79.20;100225.83;1748474;80;21255;-73
2022/06/30 00:34:06;;;;;;;12.47;10.40;;;;;;;20.21;79.31;100220.40;1757234;80;21030;-73
2022/06/30 00:36:32;;;;;;;12.95;10.23;;;;;;;20.27;79.34;100218.83;1749460;80;22541;-72
2022/06/30 00:38:59;;;;;;;11.97;10.30;;;;;;;20.29;79.35;100219.47;1747941;80;21467;-72
2022/06/30 00:41:25;;;;;;;10.93;9.90;;;;;;;20.31;79.36;100225.47;1753464;80;21387;-72
2022/06/30 00:43:53;;;;;;;11.33;10.00;;;;;;;20.34;79.35;100228.27;1748865;80;21015;-74
2022/06/30 00:46:20;;;;;;;10.70;9.60;;;;;;;20.34;79.34;100226.94;1746448;82;21067;-72
2022/06/30 00:48:46;;;;;;;13.18;9.53;;;;;;;20.34;79.34;100221.06;1757890;80;21880;-72
2022/06/30 00:51:14;;;;;;;11.45;10.18;;;;;;;20.38;79.31;100217.00;1727769;81;20949;-72
2022/06/30 00:53:41;;;;;;;9.58;8.58;;;;;;;20.39;79.32;100218.66;1741746;80;20984;-72
2022/06/30 00:56:09;;;;;;;7.22;6.53;;;;;;;20.38;79.35;100210.29;1724310;81;21179;-72
2022/06/30 00:58:38;;;;;;;9.30;6.87;;;;;;;20.42;79.47;100209.39;1749031;80;20936;-72
2022/06/30 01:01:08;;;;;;;8.25;6.72;;;;;;;20.44;79.54;100208.71;1725979;80;21925;-73
2022/06/30 01:03:36;;;;;;;7.17;6.42;;;;;;;20.46;79.55;100203.50;1723315;82;21039;-72
2022/06/30 01:06:04;;;;;;;7.10;5.15;;;;;;;20.47;79.55;100204.33;1746908;80;20992;-71
2022/06/30 01:08:33;;;;;;;7.28;5.78;;;;;;;20.48;79.55;100196.59;1726704;81;20960;-72
2022/06/30 01:13:46;;;;;;;7.87;5.00;;;;;;;20.52;79.57;100185.28;1725518;81;22004;-72
2022/06/30 01:16:13;;;;;;;6.53;4.70;;;;;;;20.55;79.51;100186.74;1749413;82;20876;-72
2022/06/30 01:18:39;;;;;;;7.28;4.75;;;;;;;20.56;79.52;100187.92;1748997;82;21047;-72
2022/06/30 01:21:06;;;;;;;6.67;4.87;;;;;;;20.56;79.47;100195.97;1748943;80;21020;-71
2022/06/30 01:23:33;;;;;;;6.42;4.62;;;;;;;20.53;79.46;100188.28;1753852;80;20983;-71
2022/06/30 01:26:00;;;;;;;5.40;4.53;;;;;;;20.49;79.36;100188.36;1747697;80;21765;-71
2022/06/30 01:28:26;;;;;;;7.03;4.30;;;;;;;20.48;79.23;100184.02;1749878;82;21294;-71
2022/06/30 01:30:53;;;;;;;6.87;4.30;;;;;;;20.46;79.10;100173.98;1750041;80;21440;-73
2022/06/30 01:33:19;;;;;;;5.65;4.05;;;;;;;20.45;78.92;100183.03;1749393;82;21008;-73
2022/06/30 01:35:46;;;;;;;4.28;3.47;;;;;;;20.43;78.63;100185.08;1748799;80;21023;-72
2022/06/30 01:38:12;;;;;;;6.50;3.90;;;;;;;20.38;78.43;100187.48;1748121;80;21936;-73
2022/06/30 01:40:39;;;;;;;5.58;3.70;;;;;;;20.35;78.23;100187.84;1746216;80;21057;-72
2022/06/30 01:43:11;;;;;;;6.33;3.90;;;;;;;20.32;78.18;100199.48;1756346;80;21043;-72
2022/06/30 01:45:36;;;;;;;6.03;4.22;;;;;;;20.29;78.12;100200.70;1755151;80;21424;-73
2022/06/30 01:48:02;;;;;;;7.33;4.28;;;;;;;20.26;78.16;100201.05;1749594;82;20956;-73
2022/06/30 01:50:30;;;;;;;6.60;4.50;;;;;;;20.25;78.21;100206.09;1750468;80;21933;-73
2022/06/30 01:52:58;;;;;;;5.45;4.05;;;;;;;20.24;78.25;100201.75;1746050;80;21040;-74
2022/06/30 01:55:25;;;;;;;4.75;4.12;;;;;;;20.24;78.35;100202.58;1748154;80;21005;-73
2022/06/30 01:57:51;;;;;;;10.90;4.40;;;;;;;20.24;78.38;100205.27;1719802;82;21444;-73
2022/06/30 02:00:21;;;;;;;6.78;4.47;;;;;;;20.26;78.31;100203.22;1746325;80;21415;-74
2022/06/30 02:02:51;;;;;;;4.50;4.10;;;;;;;20.26;78.36;100201.05;1748097;80;22495;-73
2022/06/30 02:05:18;;;;;;;8.00;4.80;;;;;;;20.26;78.42;100199.70;1749715;82;21000;-73
2022/06/30 02:07:44;;;;;;;6.55;4.55;;;;;;;20.26;78.43;100191.16;1749360;80;20965;-73
2022/06/30 02:10:14;;;;;;;5.75;4.42;;;;;;;20.25;78.48;100196.20;1749693;80;21050;-74
2022/06/30 02:12:47;;;;;;;8.53;4.45;;;;;;;20.24;78.51;100199.90;1760126;80;20989;-74
2022/06/30 02:15:24;;;;;;;9.20;4.40;;;;;;;20.23;78.57;100204.95;1749057;82;21926;-73
2022/06/30 02:17:52;;;;;;;6.58;4.45;;;;;;;20.23;78.55;100195.56;1749348;81;21467;-73
2022/06/30 02:20:23;;;;;;;5.87;4.40;;;;;;;20.24;78.62;100204.44;1749698;80;21051;-74
2022/06/30 02:22:54;;;;;;;5.35;4.70;;;;;;;20.24;78.71;100207.12;1746561;81;20984;-73
2022/06/30 02:25:23;;;;;;;9.58;4.42;;;;;;;20.24;78.78;100209.80;1748604;80;20988;-74
2022/06/30 02:27:50;;;;;;;6.70;4.70;;;;;;;20.23;78.83;100201.44;1729306;80;22004;-71
2022/06/30 02:30:17;;;;;;;8.75;5.15;;;;;;;20.24;78.84;100197.73;1755993;80;20944;-71
2022/06/30 02:32:44;;;;;;;4.95;4.30;;;;;;;20.24;78.90;100192.37;1748632;80;21035;-72
2022/06/30 02:35:10;;;;;;;6.95;4.65;;;;;;;20.24;78.92;100199.90;1751917;80;20986;-72
2022/06/30 02:37:37;;;;;;;6.15;4.80;;;;;;;20.27;79.02;100200.06;1725568;80;21052;-72
2022/06/30 02:40:04;;;;;;;7.97;4.92;;;;;;;20.28;79.14;100195.01;1730841;80;21910;-72
2022/06/30 02:42:31;;;;;;;8.40;4.33;;;;;;;20.29;79.25;100193.98;1737759;80;20988;-73
2022/06/30 02:44:57;;;;;;;6.45;4.72;;;;;;;20.29;79.40;100194.81;1748847;80;21491;-71
2022/06/30 02:47:32;;;;;;;8.63;4.83;;;;;;;20.33;79.52;100193.09;1748762;82;21177;-71
2022/06/30 02:49:58;;;;;;;5.60;4.97;;;;;;;20.34;79.61;100198.77;1763245;80;21007;-72
2022/06/30 02:52:25;;;;;;;8.43;5.03;;;;;;;20.36;79.71;100205.59;1712434;81;21916;-72
2022/06/30 02:54:51;;;;;;;9.70;4.85;;;;;;;20.38;79.78;100202.24;1749459;82;20964;-72
2022/06/30 02:57:18;;;;;;;5.85;5.00;;;;;;;20.42;79.89;100199.48;1743997;80;21008;-72
2022/06/30 02:59:44;;;;;;;5.87;4.87;;;;;;;20.46;79.95;100197.27;1755242;80;20989;-72
2022/06/30 03:02:11;;;;;;;6.85;4.55;;;;;;;20.50;80.04;100200.75;1746495;80;20992;-71
2022/06/30 03:04:37;;;;;;;6.75;4.78;;;;;;;20.55;80.11;100200.98;1746690;82;21800;-74
2022/06/30 03:07:05;;;;;;;5.22;4.72;;;;;;;20.59;80.17;100197.44;1748060;80;20949;-75
2022/06/30 03:09:31;;;;;;;26.52;23.90;;;;;;;20.62;80.19;100194.36;1714591;82;22301;-76
2022/06/30 03:11:59;;;;;;;9.45;8.48;;;;;;;20.67;80.23;100204.02;1652344;85;20994;-75
2022/06/30 03:14:25;;;;;;;10.23;9.23;;;;;;;20.72;80.29;100199.41;1680904;83;20965;-74
2022/06/30 03:16:52;;;;;;;9.40;8.50;;;;;;;20.76;80.34;100193.48;1688158;83;21566;-77
2022/06/30 03:19:19;;;;;;;8.28;6.80;;;;;;;20.82;80.37;100197.23;1692643;82;21014;-72
2022/06/30 03:21:46;;;;;;;7.12;6.08;;;;;;;20.86;80.38;100201.20;1710845;82;21431;-71
2022/06/30 03:24:12;;;;;;;6.55;5.33;;;;;;;20.88;80.39;100201.02;1716042;82;21017;-82
2022/06/30 03:26:39;;;;;;;6.95;5.28;;;;;;;20.86;80.46;100193.16;1716188;82;21067;-73
2022/06/30 03:29:06;;;;;;;6.45;5.67;;;;;;;20.88;80.42;100196.47;1707153;82;21933;-74
2022/06/30 03:31:32;;;;;;;7.20;5.90;;;;;;;20.90;80.48;100199.78;1704118;83;20966;-73
2022/06/30 03:33:59;;;;;;;7.40;6.70;;;;;;;20.92;80.58;100196.39;1703495;82;21017;-79
2022/06/30 03:36:25;;;;;;;8.53;6.90;;;;;;;20.92;80.64;100195.05;1679936;83;21110;-72
2022/06/30 03:38:52;;;;;;;6.92;5.97;;;;;;;20.93;80.66;100201.25;1679122;83;20958;-73
2022/06/30 03:41:18;;;;;;;6.67;5.72;;;;;;;20.94;80.69;100204.25;1712512;82;21819;-71
2022/06/30 03:43:45;;;;;;;9.13;5.40;;;;;;;20.94;80.65;100213.16;1697997;84;20947;-71
2022/06/30 03:46:11;;;;;;;7.40;5.85;;;;;;;20.96;80.62;100205.73;1689276;83;21507;-71
2022/06/30 03:48:41;;;;;;;6.50;5.70;;;;;;;20.98;80.47;100200.17;1683882;82;21482;-71
2022/06/30 03:51:07;;;;;;;6.65;6.00;;;;;;;20.99;80.35;100191.91;1701894;83;21095;-72
2022/06/30 03:53:34;;;;;;;6.50;5.72;;;;;;;21.01;80.36;100201.95;1710459;83;22449;-74
2022/06/30 03:56:00;;;;;;;8.18;5.67;;;;;;;21.04;80.41;100209.63;1698196;83;21528;-73
2022/06/30 03:58:26;;;;;;;7.03;6.05;;;;;;;21.07;80.50;100215.95;1731721;81;21606;-73
2022/06/30 04:00:53;;;;;;;6.70;6.00;;;;;;;21.09;80.52;100226.49;1723145;81;20990;-72
2022/06/30 04:03:19;;;;;;;6.92;6.25;;;;;;;21.11;80.50;100221.75;1721081;83;21030;-72
2022/06/30 04:05:46;;;;;;;7.42;6.20;;;;;;;21.13;80.55;100218.35;1707458;82;22052;-73
2022/06/30 04:08:13;;;;;;;7.20;6.45;;;;;;;21.17;80.59;100216.95;1702130;81;20966;-73
2022/06/30 04:10:40;;;;;;;7.03;6.33;;;;;;;21.22;80.62;100215.02;1717190;81;21017;-72
2022/06/30 04:13:06;;;;;;;7.00;6.12;;;;;;;21.27;80.66;100218.83;1721132;83;21000;-71
2022/06/30 04:15:34;;;;;;;10.78;6.10;;;;;;;21.34;80.70;100210.83;1725510;81;20960;-71
2022/06/30 04:18:01;;;;;;;8.65;6.08;;;;;;;21.40;80.80;100215.40;1720512;83;21810;-71
2022/06/30 04:20:27;;;;;;;7.37;6.22;;;;;;;21.42;80.41;100214.68;1719505;81;21065;-71
2022/06/30 04:22:54;;;;;;;6.92;6.33;;;;;;;21.47;80.33;100218.97;1705889;81;21101;-71
2022/06/30 04:25:21;;;;;;;7.42;6.72;;;;;;;21.52;80.15;100217.88;1718251;83;21048;-71
2022/06/30 04:27:50;;;;;;;7.37;6.35;;;;;;;21.58;79.97;100222.45;1717420;81;22216;-71
2022/06/30 04:32:37;;;;;;;7.12;6.42;;;;;;;21.62;79.33;100225.08;1710315;81;22711;-71
2022/06/30 04:32:48;;;;;;;8.43;6.10;;;;;;;21.66;79.01;100217.44;1702137;81;21500;-71
2022/06/30 04:35:15;;;;;;;7.90;5.97;;;;;;;21.71;78.74;100216.31;1698770;82;21392;-71
2022/06/30 04:37:41;;;;;;;6.92;6.20;;;;;;;21.76;78.41;100215.73;1706801;81;21015;-71
2022/06/30 04:42:54;;;;;;;6.47;5.87;;;;;;;21.83;77.92;100228.19;1689174;81;21811;-72
2022/06/30 04:45:21;;;;;;;6.67;5.62;;;;;;;21.88;77.86;100231.09;1700309;81;21053;-74
2022/06/30 04:47:47;;;;;;;7.87;5.70;;;;;;;21.91;77.63;100235.27;1712555;81;21048;-71
2022/06/30 04:50:13;;;;;;;7.50;5.95;;;;;;;21.91;77.19;100237.45;1718480;82;21328;-71
2022/06/30 04:52:40;;;;;;;7.17;5.72;;;;;;;21.94;77.07;100242.42;1718434;81;21470;-71
2022/06/30 04:55:08;;;;;;;6.08;5.45;;;;;;;21.92;76.94;100235.07;1720818;81;21504;-71
2022/06/30 04:57:36;;;;;;;6.40;5.60;;;;;;;21.95;76.89;100244.59;1729381;81;21114;-71
2022/06/30 05:00:05;;;;;;;7.10;6.17;;;;;;;21.95;76.53;100241.90;1729205;81;21506;-74
2022/06/30 05:02:32;;;;;;;8.43;6.25;;;;;;;21.88;76.28;100249.92;1722657;81;21106;-71
2022/06/30 05:04:58;;;;;;;7.15;6.45;;;;;;;21.85;76.34;100247.64;1720860;83;21051;-71
2022/06/30 05:07:24;;;;;;;7.17;6.28;;;;;;;21.86;76.54;100256.02;1703115;83;21982;-71
2022/06/30 05:09:51;;;;;;;11.45;6.65;;;;;;;21.85;76.55;100259.73;1726300;82;20987;-71
2022/06/30 05:12:18;;;;;;;8.68;6.53;;;;;;;21.86;76.75;100264.60;1718205;83;21052;-71
2022/06/30 05:14:44;;;;;;;8.68;6.78;;;;;;;21.90;76.94;100267.20;1724914;81;21010;-71
2022/06/30 05:17:12;;;;;;;7.37;6.53;;;;;;;21.95;77.15;100264.24;1729365;81;21079;-71
2022/06/30 05:19:38;;;;;;;7.62;6.33;;;;;;;22.00;77.02;100269.02;1716269;81;21908;-71
2022/06/30 05:22:05;;;;;;;7.92;6.72;;;;;;;21.99;76.63;100264.66;1726465;81;20962;-71
2022/06/30 05:27:17;;;;;;;7.40;6.60;;;;;;;21.95;76.07;100264.24;1697415;84;21530;-72
2022/06/30 05:29:46;;;;;;;7.28;6.58;;;;;;;21.92;75.85;100261.13;1697574;84;21058;-72
2022/06/30 05:32:12;;;;;;;7.97;7.17;;;;;;;21.90;75.88;100262.65;1707590;81;21918;-73
2022/06/30 05:34:39;;;;;;;11.03;7.30;;;;;;;21.88;75.84;100266.57;1716337;81;21019;-73
2022/06/30 05:37:05;;;;;;;9.05;6.87;;;;;;;21.87;75.99;100256.84;1724784;82;21355;-73
2022/06/30 05:39:37;;;;;;;9.38;7.15;;;;;;;21.93;76.14;100254.72;1726572;81;20962;-74
2022/06/30 05:42:02;;;;;;;7.40;6.75;;;;;;;21.99;76.02;100254.73;1724484;81;20992;-73
2022/06/30 05:44:29;;;;;;;9.70;7.35;;;;;;;22.04;75.97;100258.19;1721056;81;22328;-74
2022/06/30 05:46:55;;;;;;;7.72;6.70;;;;;;;22.12;75.95;100267.48;1722254;81;20991;-72
2022/06/30 05:49:25;;;;;;;9.18;7.37;;;;;;;22.20;75.83;100257.06;1728126;81;20986;-72
2022/06/30 05:51:52;;;;;;;8.58;7.12;;;;;;;22.20;75.23;100256.55;1719778;83;20974;-73
2022/06/30 05:54:19;;;;;;;9.63;6.95;;;;;;;22.19;74.81;100254.86;1721613;81;21017;-73
2022/06/30 05:56:45;;;;;;;9.18;6.92;;;;;;;22.21;74.77;100256.86;1730149;81;21940;-73
2022/06/30 05:59:12;;;;;;;12.10;6.70;;;;;;;22.28;74.71;100262.25;1756671;81;20953;-73
2022/06/30 06:01:39;;;;;;;7.30;6.60;;;;;;;22.36;74.55;100254.52;1728790;80;21062;-73
2022/06/30 06:04:06;;;;;;;12.23;6.87;;;;;;;22.52;74.66;100263.59;1716654;81;21189;-73
2022/06/30 06:06:33;;;;;;;7.90;6.33;;;;;;;22.67;74.56;100260.20;1717291;81;21395;-72
2022/06/30 06:08:59;;;;;;;8.00;6.28;;;;;;;22.80;74.25;100255.39;1749654;82;21769;-73
2022/06/30 06:11:26;;;;;;;8.48;6.50;;;;;;;22.95;73.86;100258.74;1742418;80;21025;-73
2022/06/30 06:13:52;;;;;;;10.50;6.20;;;;;;;23.05;73.28;100258.34;1735241;80;21018;-73
2022/06/30 06:16:19;;;;;;;6.67;5.92;;;;;;;23.14;73.13;100255.23;1749519;80;21535;-74
2022/06/30 06:18:45;;;;;;;6.75;6.03;;;;;;;23.18;72.61;100254.84;1750986;80;20976;-73
2022/06/30 06:21:12;;;;;;;10.35;6.83;;;;;;;23.23;72.24;100253.17;1749629;82;22298;-72
2022/06/30 06:23:38;;;;;;;9.53;5.87;;;;;;;23.29;71.80;100252.88;1747962;80;20993;-72
2022/06/30 06:26:05;;;;;;;8.15;6.40;;;;;;;23.30;71.18;100249.97;1721430;81;21029;-73
2022/06/30 06:31:17;;;;;;;6.67;5.90;;;;;;;23.17;70.77;100254.54;1725732;81;21063;-73
2022/06/30 06:33:45;;;;;;;6.92;6.22;;;;;;;23.06;70.67;100249.22;1748469;80;21927;-73
2022/06/30 06:36:13;;;;;;;5.78;5.28;;;;;;;23.00;70.76;100260.31;1749208;80;20945;-73
2022/06/30 06:38:40;;;;;;;7.17;5.78;;;;;;;23.00;70.98;100260.84;1753224;80;21142;-73
2022/06/30 06:41:08;;;;;;;6.05;5.47;;;;;;;23.04;70.83;100265.59;1746108;82;20996;-72
2022/06/30 06:43:35;;;;;;;6.10;5.50;;;;;;;23.09;71.00;100268.52;1708069;82;20974;-74
2022/06/30 06:46:02;;;;;;;6.42;5.25;;;;;;;23.20;71.17;100272.45;1733502;80;21853;-74
2022/06/30 06:48:29;;;;;;;8.08;5.85;;;;;;;23.36;71.21;100268.02;1740519;80;21043;-73
2022/06/30 06:50:55;;;;;;;6.75;5.55;;;;;;;23.48;69.89;100270.08;1743131;80;21068;-72
2022/06/30 06:53:22;;;;;;;7.85;6.37;;;;;;;23.50;69.32;100278.78;1753125;80;21004;-74
2022/06/30 06:55:48;;;;;;;6.70;6.00;;;;;;;23.52;68.42;100267.26;1789277;80;20979;-74
2022/06/30 06:58:16;;;;;;;9.80;6.50;;;;;;;23.55;68.62;100265.52;1779912;80;21947;-72
2022/06/30 07:00:42;;;;;;;6.42;5.78;;;;;;;23.62;68.42;100265.83;1731070;80;20954;-73
2022/06/30 07:03:09;;;;;;;6.70;5.87;;;;;;;23.70;68.26;100262.09;1740280;80;21071;-74
2022/06/30 07:05:35;;;;;;;7.00;5.65;;;;;;;23.79;67.74;100263.52;1739291;80;21411;-74
2022/06/30 07:08:02;;;;;;;7.53;6.22;;;;;;;23.85;67.04;100250.55;1746751;82;21003;-71
2022/06/30 07:10:29;;;;;;;7.22;6.03;;;;;;;23.96;66.74;100251.25;1746927;82;21957;-73
2022/06/30 07:12:56;;;;;;;7.75;6.15;;;;;;;24.07;66.42;100247.05;1746116;80;21067;-73
2022/06/30 07:15:22;;;;;;;8.25;6.75;;;;;;;24.07;65.69;100248.41;1741202;80;21032;-74
2022/06/30 07:17:49;;;;;;;10.30;7.65;;;;;;;24.09;65.95;100246.31;1717473;80;21459;-83
2022/06/30 07:20:15;;;;;;;7.30;6.60;;;;;;;24.10;65.83;100240.39;1740585;82;21063;-75
2022/06/30 07:22:42;;;;;;;8.78;7.40;;;;;;;24.03;66.12;100239.09;1744491;81;21876;-72
2022/06/30 07:25:09;;;;;;;11.85;7.47;;;;;;;24.00;66.44;100239.50;1748167;80;20952;-79
2022/06/30 07:27:36;;;;;;;8.05;7.25;;;;;;;24.08;67.23;100239.27;1733852;82;21087;-78
2022/06/30 07:30:03;;;;;;;9.58;7.53;;;;;;;24.22;66.93;100236.84;1719993;82;21059;-77
2022/06/30 07:32:31;;;;;;;8.70;7.80;;;;;;;24.31;66.58;100243.31;1702958;83;21095;-78
2022/06/30 07:34:58;;;;;;;8.05;7.25;;;;;;;24.32;66.65;100244.52;1710433;83;21920;-79
2022/06/30 07:37:25;;;;;;;8.65;7.22;;;;;;;24.37;66.72;100246.55;1701460;84;21049;-75
2022/06/30 07:39:52;;;;;;;12.45;7.50;;;;;;;24.45;66.61;100252.53;1687947;85;21048;-76
2022/06/30 07:42:18;;;;;;;9.13;7.95;;;;;;;24.57;66.71;100254.55;1709986;83;21043;-77
2022/06/30 07:44:45;;;;;;;9.63;8.15;;;;;;;24.65;66.22;100250.25;1710135;83;21538;-78
2022/06/30 07:47:12;;;;;;;9.65;8.75;;;;;;;24.64;66.06;100254.83;1709551;83;22562;-75
2022/06/30 07:49:40;;;;;;;9.18;8.20;;;;;;;24.59;66.08;100258.69;1709988;82;21554;-73
2022/06/30 07:52:07;;;;;;;9.03;7.80;;;;;;;24.53;66.25;100261.74;1709671;82;21051;-74
2022/06/30 07:54:33;;;;;;;9.20;7.62;;;;;;;24.61;67.13;100265.21;1702644;83;21027;-76
2022/06/30 07:57:00;;;;;;;9.40;8.40;;;;;;;24.77;67.46;100259.31;1698869;83;21040;-77
2022/06/30 07:59:27;;;;;;;9.08;7.97;;;;;;;24.94;67.17;100265.86;1711093;83;21914;-77
2022/06/30 08:01:53;;;;;;;12.15;7.35;;;;;;;25.05;66.37;100267.88;1708186;83;21013;-77
2022/06/30 08:04:20;;;;;;;10.18;7.40;;;;;;;25.13;66.24;100268.14;1709913;83;21024;-75
2022/06/30 08:06:46;;;;;;;8.43;7.55;;;;;;;25.25;65.43;100261.50;1716439;82;21035;-77
2022/06/30 08:09:13;;;;;;;10.05;7.45;;;;;;;25.27;64.54;100267.50;1720049;83;21121;-77
2022/06/30 08:11:40;;;;;;;7.72;7.00;;;;;;;25.29;64.07;100268.14;1684109;84;21867;-84
2022/06/30 08:14:07;;;;;;;8.45;6.87;;;;;;;25.33;64.20;100263.93;1687142;83;21059;-76
2022/06/30 08:16:34;;;;;;;7.60;6.80;;;;;;;25.42;63.56;100261.25;1689593;85;21008;-77
2022/06/30 08:19:00;;;;;;;7.90;7.10;;;;;;;25.49;63.32;100263.38;1709892;83;21135;-77
2022/06/30 08:21:27;;;;;;;9.45;7.30;;;;;;;25.61;63.06;100264.30;1708490;83;21053;-77
2022/06/30 08:23:53;;;;;;;8.08;7.30;;;;;;;25.73;61.40;100260.36;1696947;84;21790;-80
2022/06/30 08:26:20;;;;;;;8.15;6.55;;;;;;;25.76;61.88;100257.72;1709897;83;21516;-77
2022/06/30 08:28:47;;;;;;;7.75;7.05;;;;;;;25.80;61.88;100258.95;1691801;84;21062;-78
2022/06/30 08:31:15;;;;;;;8.83;6.70;;;;;;;25.76;61.68;100257.20;1695204;84;21017;-76
2022/06/30 08:33:41;;;;;;;8.43;6.97;;;;;;;25.74;61.46;100257.13;1710037;83;21056;-77
2022/06/30 08:36:08;;;;;;;8.85;7.50;;;;;;;25.80;61.93;100256.24;1684578;83;21906;-77
2022/06/30 08:38:35;;;;;;;7.62;6.80;;;;;;;25.92;61.65;100249.02;1696745;84;21084;-78
2022/06/30 08:43:48;;;;;;;7.83;6.97;;;;;;;26.07;61.43;100252.72;1709900;83;21079;-74
2022/06/30 08:46:15;;;;;;;13.80;7.37;;;;;;;26.11;61.71;100247.97;1709988;83;21087;-75
2022/06/30 08:48:41;;;;;;;8.35;6.47;;;;;;;26.05;61.04;100248.86;1694902;83;21900;-75
2022/06/30 08:51:08;;;;;;;10.40;6.78;;;;;;;25.99;61.14;100246.25;1691708;83;21051;-76
2022/06/30 08:53:40;;;;;;;7.37;6.67;;;;;;;25.98;61.40;100254.91;1709911;83;21037;-78
2022/06/30 08:56:07;;;;;;;9.20;6.47;;;;;;;26.11;61.63;100260.16;1709037;83;21076;-76
2022/06/30 08:58:34;;;;;;;6.58;5.92;;;;;;;26.27;60.73;100258.72;1697754;83;21217;-76
2022/06/30 09:01:00;;;;;;;7.05;6.35;;;;;;;26.40;60.77;100269.41;1696589;83;21767;-77
2022/06/30 09:03:27;;;;;;;6.95;6.00;;;;;;;26.49;60.82;100272.10;1694571;84;21657;-76
2022/06/30 09:05:53;;;;;;;6.97;6.37;;;;;;;26.56;59.60;100271.20;1667235;84;21545;-76
2022/06/30 09:08:20;;;;;;;7.42;6.17;;;;;;;26.51;60.21;100274.58;1643200;84;21115;-78
2022/06/30 09:10:54;;;;;;;6.97;6.37;;;;;;;26.59;60.07;100272.91;1696516;84;21506;-78
2022/06/30 09:13:21;;;;;;;6.72;6.12;;;;;;;26.68;58.80;100268.00;1698996;82;21853;-80
2022/06/30 09:15:49;;;;;;;7.50;6.00;;;;;;;26.71;59.09;100271.59;1694171;83;21016;-77
2022/06/30 09:18:24;;;;;;;7.17;6.37;;;;;;;26.79;58.83;100274.81;1709067;82;21100;-75
2022/06/30 09:20:51;;;;;;;6.37;5.80;;;;;;;26.92;58.41;100275.14;1681452;83;21200;-74
2022/06/30 09:23:29;;;;;;;7.15;6.55;;;;;;;27.03;57.70;100268.98;1671441;84;21108;-75
2022/06/30 09:25:59;;;;;;;7.05;5.97;;;;;;;27.14;58.05;100270.05;1705789;83;22497;-74
2022/06/30 09:28:47;;;;;;;6.92;6.30;;;;;;;27.28;57.02;100270.13;1696819;82;21076;-75
2022/06/30 09:31:15;;;;;;;7.80;6.37;;;;;;;27.20;55.68;100271.81;1688977;83;21047;-75
2022/06/30 09:33:47;;;;;;;6.95;6.22;;;;;;;27.10;56.45;100269.67;1705064;83;21048;-76
2022/06/30 09:36:27;;;;;;;7.10;5.53;;;;;;;27.13;55.98;100268.94;1681667;83;21497;-73
2022/06/30 09:39:05;;;;;;;6.28;5.67;;;;;;;27.19;56.16;100272.88;1703734;82;21977;-73
2022/06/30 09:41:35;;;;;;;8.10;6.08;;;;;;;27.35;56.25;100268.14;1705445;83;21071;-77
2022/06/30 09:44:23;;;;;;;7.20;6.10;;;;;;;27.49;56.30;100261.94;1705754;82;21617;-76
2022/06/30 09:47:04;;;;;;;6.72;6.12;;;;;;;27.62;56.58;100258.19;1701926;82;21090;-79
2022/06/30 09:49:42;;;;;;;7.00;6.30;;;;;;;27.81;56.08;100260.27;1705092;82;21391;-75
2022/06/30 09:52:25;;;;;;;6.65;5.90;;;;;;;27.96;54.93;100247.02;1706560;82;21959;-78
2022/06/30 09:54:57;;;;;;;;;;;;;;;28.08;54.63;100246.98;1701302;82;21033;-76
2022/06/30 09:57:29;;;;;;;10.23;5.70;;;;;;;28.10;54.60;100244.88;1740946;82;20146;-77
2022/06/30 10:00:06;;;;;;;6.05;5.53;;;;;;;28.15;55.03;100246.33;1661670;83;21092;-77
2022/06/30 10:02:41;;;;;;;5.70;5.20;;;;;;;28.30;54.33;100249.39;1700020;82;21091;-76
2022/06/30 10:05:09;;;;;;;6.58;5.15;;;;;;;28.35;53.61;100247.30;1705236;83;22486;-76
2022/06/30 10:07:37;;;;;;;10.85;6.00;;;;;;;28.37;53.73;100251.95;1704216;83;21047;-76
2022/06/30 10:10:15;;;;;;;7.90;5.80;;;;;;;28.48;54.07;100249.22;1705283;83;21017;-75
2022/06/30 10:12:44;;;;;;;6.67;5.70;;;;;;;28.62;53.01;100247.02;1698246;82;21640;-75
2022/06/30 10:15:14;;;;;;;6.10;5.35;;;;;;;28.69;52.62;100251.77;1701090;82;21546;-73
2022/06/30 10:17:48;;;;;;;9.00;5.70;;;;;;;28.79;53.57;100253.31;1704738;84;21791;-73
2022/06/30 10:20:15;;;;;;;8.03;5.58;;;;;;;28.98;53.43;100252.59;1704962;84;21571;-72
2022/06/30 10:22:42;;;;;;;6.30;5.70;;;;;;;29.15;52.29;100233.58;1705094;84;21017;-72
2022/06/30 10:25:08;;;;;;;7.53;5.30;;;;;;;29.24;51.65;100247.55;1720990;81;21078;-71
2022/06/30 10:27:35;;;;;;;7.87;5.40;;;;;;;29.41;50.87;100246.20;1709235;82;21047;-79
2022/06/30 10:30:11;;;;;;;5.83;5.33;;;;;;;29.41;50.87;100246.20;1683732;83;22351;-75
2022/06/30 10:33:05;;;;;;;5.85;5.30;;;;;;;29.41;51.18;100249.74;1721367;83;21309;-74
2022/06/30 10:35:48;;;;;;;5.55;5.05;;;;;;;29.50;51.29;100241.48;1711348;83;21478;-74
2022/06/30 10:38:27;;;;;;;7.87;5.40;;;;;;;29.75;51.44;100240.21;1685849;84;21372;-73
2022/06/30 10:41:14;;;;;;;6.08;5.22;;;;;;;29.98;50.69;100240.50;1694335;83;21474;-73
2022/06/30 10:44:08;;;;;;;5.28;4.87;;;;;;;30.19;49.48;100240.52;1682918;84;21948;-73
2022/06/30 10:46:36;;;;;;;6.22;4.70;;;;;;;30.19;48.87;100237.80;1679685;83;21437;-74
2022/06/30 10:49:11;;;;;;;7.03;5.30;;;;;;;30.21;47.66;100245.75;1724875;83;21035;-74
2022/06/30 10:51:38;;;;;;;5.47;4.90;;;;;;;30.14;47.71;100239.12;1711412;83;20985;-73
2022/06/30 10:54:06;;;;;;;5.33;4.85;;;;;;;30.05;48.43;100241.97;1685145;84;21017;-74
2022/06/30 10:56:55;;;;;;;6.75;5.03;;;;;;;30.17;48.93;100236.42;1695476;84;21879;-74
2022/06/30 10:59:34;;;;;;;5.03;4.50;;;;;;;30.36;48.46;100238.27;1697003;83;21002;-74
2022/06/30 11:02:22;;;;;;;5.83;4.95;;;;;;;30.53;47.75;100236.83;1712724;83;21487;-73
2022/06/30 11:04:50;;;;;;;7.00;5.12;;;;;;;30.67;47.51;100242.99;1723862;83;21039;-74
2022/06/30 11:07:21;;;;;;;5.45;4.95;;;;;;;30.71;47.25;100238.69;1724623;83;21105;-74
2022/06/30 11:09:57;;;;;;;11.18;5.10;;;;;;;30.70;46.35;100243.86;1724562;83;21816;-74
2022/06/30 11:12:37;;;;;;;5.15;4.50;;;;;;;30.58;46.68;100242.31;1724514;83;21383;-73
2022/06/30 11:15:04;;;;;;;6.80;4.65;;;;;;;30.54;47.03;100235.20;1724769;83;21007;-74
2022/06/30 11:17:32;;;;;;;7.35;4.78;;;;;;;30.57;47.23;100233.31;1726772;83;21019;-76
2022/06/30 11:20:11;;;;;;;7.78;4.65;;;;;;;30.54;46.88;100239.30;1709625;83;21145;-74
2022/06/30 11:22:39;;;;;;;4.80;4.30;;;;;;;30.65;46.34;100232.89;1723735;83;22884;-74
2022/06/30 11:27:45;;;;;;;7.97;4.50;;;;;;;30.86;46.44;100233.08;1634417;84;21036;-74
2022/06/30 11:30:12;;;;;;;5.17;4.30;;;;;;;31.08;46.10;100230.27;1664363;86;21000;-74
2022/06/30 11:32:38;;;;;;;5.22;4.20;;;;;;;31.30;46.02;100225.58;1664389;86;21523;-73
2022/06/30 11:35:07;;;;;;;5.00;4.22;;;;;;;31.60;45.79;100220.85;1664290;85;21835;-73
2022/06/30 11:37:34;;;;;;;5.10;4.17;;;;;;;31.85;44.41;100216.93;1680438;83;21373;-73
2022/06/30 11:40:06;;;;;;;5.25;4.75;;;;;;;31.97;44.70;100217.25;1726793;83;21494;-74
2022/06/30 11:42:33;;;;;;;4.65;3.75;;;;;;;32.09;44.39;100211.83;1724773;83;21046;-74
2022/06/30 11:44:59;;;;;;;4.55;4.00;;;;;;;32.15;43.37;100215.41;1726840;83;21418;-74
2022/06/30 11:47:28;;;;;;;4.87;4.15;;;;;;;32.18;43.08;100210.77;1724464;83;21557;-74